Tiempo atmosférico en la estación meteorológica de Villamayor de los Montes, Burgos (882 m.)



Fecha
DESCASC
Temp. máxima en grados centígrados (hora)
DESCASC
Temp. mínima en grados centígrados (hora)
DESCASC
Temp. media en grados centígrados
DESCASC
Racha de viento máxima en m/sg (hora)
DESCASC
Velocidad máxima media en intervalos de 10 minutos(hora)
DESCASC
Precipitaciones diarias en mm
DESCASC
Precipitaciones de 00:00 a 06:00 en mm
DESCASC
Precipitaciones de 06:00 a 12:00 en mm
DESCASC
Precipitaciones de 12:00 a 18:00 en mm
DESCASC
Precipitaciones de 18:00 a 24:00 en mm
DESCASC
28-05-2020 27.5 (16:10) 14.4 (06:50) 20.9 8.33 (01:10) 5 (03:10) 0 0 0 0 0
27-05-2020 28.2 (15:30) 11.2 (05:30) 19.7 8.61 (18:10) 4.72 (17:40) 0 0 0 0 0
26-05-2020 23.3 (18:30) 11.7 (06:20) 17.5 12.22 (17:30) 7.22 (15:40) 0 0 0 0 0
25-05-2020 23.5 (14:30) 10.3 (06:10) 16.9 14.17 (21:10) 8.61 (17:30) 0 0 0 0 0
24-05-2020 24 (17:00) 7.3 (00:00) 15.7 9.44 (18:10) 5.56 (20:40) 0 0 0 0 0
23-05-2020 20.1 (14:40) 9.8 (00:00) 15 14.44 (19:10) 9.17 (16:50) 0 0 0 0 0
22-05-2020 29 (18:10) 12.6 (00:00) 20.8 6.39 (17:20) 3.33 (17:20) 0 0 0 0 0
21-05-2020 27.3 (18:20) 8.7 (00:00) 18 5.56 (07:10) 3.06 (03:20) 0 0 0 0 0
20-05-2020 25.5 (17:00) 7.2 (00:00) 16.3 8.33 (17:10) 5.56 (17:10) 0 0 0 0 0
19-05-2020 23.1 (16:40) 7.8 (00:00) 15.5 12.78 (10:20) 7.5 (11:20) 0 0 0 0 0
18-05-2020 21.2 (17:20) 5.4 (00:00) 13.3 11.39 (16:00) 6.67 (15:20) 0 0 0 0 0
17-05-2020 17.9 (16:40) 3.9 (00:00) 10.9 11.39 (20:10) 7.5 (17:30) 0 0 0 0 0
16-05-2020 13.3 (18:10) 6.3 (00:00) 9.8 13.61 (12:10) 8.06 (13:30) 0 0 0 0 0
15-05-2020 11.3 (12:40) 6.6 (00:00) 9 15.56 (20:10) 8.33 (16:40) 0 0 0 0 0
14-05-2020 13.5 (12:50) 8.1 (00:00) 10.8 10.83 (13:10) 6.39 (12:30) 8.6 0 0 8.6 0
13-05-2020 16.3 (18:30) 8 (00:00) 12.1 7.22 (14:20) 3.61 (00:40) 4.4 0.6 3.8 0 0
12-05-2020 16.4 (15:50) 8 (00:00) 12.2 12.5 (18:00) 6.39 (18:00) 18.4 0 0 10.6 7.8
11-05-2020 17.9 (18:10) 8.7 (00:00) 13.3 7.78 (14:10) 4.44 (20:50) 0.2 0.2 0 0 0
10-05-2020 15.4 (15:50) 8.6 (00:00) 12 8.89 (16:00) 4.44 (15:50) 15.8 12 0.4 0.2 3.2
09-05-2020 19.6 (17:20) 9.5 (00:00) 14.6 7.5 (10:10) 5.56 (10:10) 0 0 0 0 0
08-05-2020 23.8 (17:20) 11.5 (00:00) 17.6 12.78 (20:10) 5.83 (18:40) 21.2 0.2 6.6 0 14.4
07-05-2020 25.5 (16:50) 9.1 (00:00) 17.3 10.28 (18:40) 7.22 (18:20) 0 0 0 0 0
06-05-2020 22 (18:20) 5.2 (00:00) 13.6 5.56 (16:50) 2.78 (19:40) 0 0 0 0 0
05-05-2020 19.7 (18:10) 9.1 (00:00) 14.4 7.5 (01:40) 5.28 (01:40) 0 0 0 0 0
04-05-2020 27.9 (16:40) 12.1 (00:00) 20 18.89 (16:40) 12.78 (16:40) 0 0 0 0 0
03-05-2020 24.9 (18:40) 7.8 (00:00) 16.3 6.67 (15:40) 3.61 (15:40) 0 0 0 0 0
02-05-2020 19.5 (18:40) 9.5 (00:00) 14.5 8.89 (12:10) 5 (13:50) 0 0 0 0 0

Gráficas

Temp. máximas Temp. mínimas Temp. medias Precipitaciones Rachas de viento máximas Velocidades máximas media en intervalos de 10 minutos

Datos horarios

Fecha y hora oficial Temperatura (ºC) Velocidad del viento (km/h) Dirección del viento Racha (km/h) Dirección de racha Precipitación (mm) Presión (hPa) Tendencia (hPa) Humedad (%)
2020-05-31 23:00:00 16 20 Sur 31 Sur 1.6 -- -- 82
2020-05-31 22:00:00 17.3 9 Sur 13 Sudoeste 0 -- -- 67
2020-05-31 21:00:00 18.9 6 Sudeste 26 Este 0 -- -- 61
2020-05-31 20:00:00 19.5 14 Sudeste 26 Este 0 -- -- 59
2020-05-31 19:00:00 19.5 16 Sudeste 30 Sudeste 0 -- -- 58
2020-05-31 18:00:00 23.3 15 Sudeste 30 Sur 0 -- -- 45
2020-05-31 17:00:00 26 4 Norte 11 Nordeste 0 -- -- 35
2020-05-31 16:00:00 26 7 Nordeste 24 Norte 0 -- -- 35
2020-05-31 15:00:00 24.9 15 Noroeste 38 Noroeste 0 -- -- 40
2020-05-31 14:00:00 24 19 Oeste 37 Oeste 0 -- -- 43
2020-05-31 13:00:00 25.3 14 Noroeste 29 Oeste 0 -- -- 43
2020-05-31 12:00:00 25.1 14 Oeste 28 Oeste 0 -- -- 48
2020-05-31 11:00:00 25.5 5 Sur 13 Sur 0 -- -- 46
2020-05-31 10:00:00 23.6 9 Sur 19 Sur 0 -- -- 49
2020-05-31 09:00:00 22 8 Sudeste 17 Sudeste 0 -- -- 54
2020-05-31 08:00:00 15.2 4 Nordeste 7 Este 0 -- -- 75
2020-05-31 07:00:00 13.2 3 Nordeste 11 Sudeste 0 -- -- 78
2020-05-31 06:00:00 13.2 2 Norte 13 Sudeste 0 -- -- 79
2020-05-31 05:00:00 15.4 7 Sudeste 10 Sudeste 0 -- -- 65
2020-05-31 04:00:00 14 0 Calma 10 Sudeste 0 -- -- 75
2020-05-31 03:00:00 16.3 4 Sudeste 10 Sudeste 0 -- -- 62
2020-05-31 02:00:00 15.8 3 Sudeste 10 Este 0 -- -- 65
2020-05-31 01:00:00 17.8 6 Este 9 Este 0 -- -- 59
2020-05-31 00:00:00 18.3 0 Calma 9 Sudoeste 0 -- -- 62
2020-05-30 23:00:00 19.4 8 Sudoeste 23 Sudoeste 0 -- -- 59
2020-05-30 22:00:00 22.3 9 Este 14 Este 0 -- -- 44
2020-05-30 21:00:00 24.8 8 Este 17 Este 0 -- -- 39
2020-05-30 20:00:00 27.2 7 Nordeste 16 Norte 0 -- -- 38
2020-05-30 19:00:00 28.8 8 Norte 16 Noroeste 0 -- -- 35
2020-05-30 18:00:00 28.8 3 Norte 22 Nordeste 0 -- -- 31
2020-05-30 17:00:00 29.3 8 Norte 23 Norte 0 -- -- 30
2020-05-30 16:00:00 28.6 9 Norte 19 Noroeste 0 -- -- 31
2020-05-30 15:00:00 28 5 Noroeste 17 Norte 0 -- -- 36
2020-05-30 14:00:00 27.6 5 Noroeste 13 Noroeste 0 -- -- 36
2020-05-30 13:00:00 26.2 6 Sudoeste 12 Sudoeste 0 -- -- 38
2020-05-30 12:00:00 24.8 3 Norte 10 Noroeste 0 -- -- 42
2020-05-30 11:00:00 23.6 2 Este 10 Sudeste 0 -- -- 43
2020-05-30 10:00:00 20.9 5 Nordeste 12 Nordeste 0 -- -- 50
2020-05-30 09:00:00 17.8 3 Nordeste 8 Nordeste 0 -- -- 64
2020-05-30 08:00:00 14.4 5 Este 12 Este 0 -- -- 69
2020-05-30 07:00:00 10.9 5 Este 11 Este 0 -- -- 83
2020-05-30 06:00:00 10.6 5 Sudeste 9 Sudeste 0 -- -- 84
2020-05-30 05:00:00 11.4 0 Calma 9 Este 0 -- -- 80
2020-05-30 04:00:00 12.5 2 Nordeste 15 Nordeste 0 -- -- 76
2020-05-30 03:00:00 13.1 4 Este 12 Nordeste 0 -- -- 75
2020-05-30 02:00:00 14.4 2 Nordeste 18 Nordeste 0 -- -- 71
2020-05-30 01:00:00 15.5 9 Este 15 Nordeste 0 -- -- 68
2020-05-30 00:00:00 16.8 10 Nordeste 21 Nordeste 0 -- -- 64
2020-05-29 23:00:00 18.6 13 Nordeste 22 Nordeste 0 -- -- 57
2020-05-29 22:00:00 20.7 8 Nordeste 22 Nordeste 0 -- -- 54
2020-05-29 21:00:00 23.9 12 Nordeste 26 Nordeste 0 -- -- 42
2020-05-29 20:00:00 26.2 13 Nordeste 27 Nordeste 0 -- -- 36
2020-05-29 19:00:00 26.9 14 Nordeste 33 Nordeste 0 -- -- 32
2020-05-29 18:00:00 27.7 13 Norte 27 Norte 0 -- -- 33
2020-05-29 17:00:00 27.8 13 Nordeste 27 Nordeste 0 -- -- 32
2020-05-29 16:00:00 28.1 10 Norte 24 Norte 0 -- -- 29
2020-05-29 15:00:00 27.3 12 Norte 23 Norte 0 -- -- 29
2020-05-29 14:00:00 26.7 5 Noroeste 21 Norte 0 -- -- 40
2020-05-29 13:00:00 26 5 Noroeste 15 Norte 0 -- -- 39
2020-05-29 12:00:00 24.5 4 Noroeste 12 Norte 0 -- -- 41
2020-05-29 11:00:00 23.2 5 Oeste 10 Noroeste 0 -- -- 42
2020-05-29 10:00:00 21.5 3 Oeste 5 Oeste 0 -- -- 50
2020-05-29 09:00:00 18.6 0 Calma 3 Norte 0 -- -- 61
2020-05-29 08:00:00 15.6 0 Calma 6 Este 0 -- -- 64
2020-05-29 07:00:00 11.6 3 Este 6 Este 0 -- -- 75
2020-05-29 06:00:00 11.8 4 Oeste 19 Este 0 -- -- 75
2020-05-29 05:00:00 16.6 12 Sudeste 23 Sudeste 0 -- -- 53
2020-05-29 04:00:00 16.7 12 Sudeste 20 Sudeste 0 -- -- 53
2020-05-29 03:00:00 17.2 10 Este 21 Sudeste 0 -- -- 53
2020-05-29 02:00:00 16 8 Sudeste 14 Sudeste 0 -- -- 59
2020-05-29 01:00:00 15 6 Este 9 Este 0 -- -- 62
2020-05-29 00:00:00 16.8 4 Este 8 Sudeste 0 -- -- 65
2020-05-28 23:00:00 18.5 5 Sudeste 13 Nordeste 0 -- -- 58
2020-05-28 22:00:00 20.8 6 Nordeste 12 Nordeste 0 -- -- 51
2020-05-28 21:00:00 22.5 7 Nordeste 18 Norte 0 -- -- 44
2020-05-28 20:00:00 25.9 10 Norte 20 Nordeste 0 -- -- 37
2020-05-28 19:00:00 26.6 13 Norte 24 Nordeste 0 -- -- 37
2020-05-28 18:00:00 26.9 14 Norte 28 Norte 0 -- -- 37
2020-05-28 17:00:00 27.5 9 Nordeste 25 Norte 0 -- -- 36
2020-05-28 16:00:00 27.2 10 Norte 26 Norte 0 -- -- 35
2020-05-28 15:00:00 26.9 7 Nordeste 19 Norte 0 -- -- 35
2020-05-28 14:00:00 26.4 6 Noroeste 17 Norte 0 -- -- 36
2020-05-28 13:00:00 25.3 5 Sur 15 Este 0 -- -- 37
2020-05-28 12:00:00 24.5 5 Sudoeste 14 Sur 0 -- -- 40
2020-05-28 11:00:00 23.3 5 Sudeste 17 Sudeste 0 -- -- 37
2020-05-28 10:00:00 21.7 9 Sudeste 19 Sudeste 0 -- -- 40
2020-05-28 09:00:00 20.5 5 Sudeste 13 Sudeste 0 -- -- 45
2020-05-28 08:00:00 16.8 2 Nordeste 14 Sudeste 0 -- -- 61
2020-05-28 07:00:00 14.6 7 Sudeste 14 Sudeste 0 -- -- 68
2020-05-28 06:00:00 15.2 5 Sudeste 22 Este 0 -- -- 68
2020-05-28 05:00:00 16.8 14 Sudeste 27 Sudeste 0 -- -- 63
2020-05-28 04:00:00 17.5 17 Sudeste 30 Este 0 -- -- 62
2020-05-28 03:00:00 17.8 15 Sudeste 27 Sudeste 0 -- -- 62
2020-05-28 02:00:00 18.4 13 Sudeste 30 Sudeste 0 -- -- 62
2020-05-28 01:00:00 19.1 15 Sudeste 26 Este 0 -- -- 58
2020-05-28 00:00:00 19.6 13 Sudeste 21 Sudeste 0 -- -- 59
2020-05-27 23:00:00 20.2 9 Este 17 Este 0 -- -- 60
2020-05-27 22:00:00 21.8 10 Este 18 Nordeste 0 -- -- 59
2020-05-27 21:00:00 22.4 8 Nordeste 27 Este 0 -- -- 57
2020-05-27 20:00:00 24.9 15 Este 26 Este 0 -- -- 44
2020-05-27 19:00:00 25.3 11 Nordeste 31 Nordeste 0 -- -- 47
2020-05-27 18:00:00 26.6 17 Nordeste 28 Nordeste 0 -- -- 47
2020-05-27 17:00:00 26.9 11 Norte 23 Nordeste 0 -- -- 45
2020-05-27 16:00:00 27.5 6 Este 23 Sudeste 0 -- -- 33
2020-05-27 15:00:00 27.4 13 Sudeste 24 Sudeste 0 -- -- 33
2020-05-27 14:00:00 26.5 10 Este 26 Este 0 -- -- 36
2020-05-27 13:00:00 25.7 10 Sudeste 25 Sudeste 0 -- -- 41
2020-05-27 12:00:00 24.4 10 Este 31 Sudeste 0 -- -- 47
2020-05-27 11:00:00 22.9 12 Sudeste 24 Sudeste 0 -- -- 55
2020-05-27 10:00:00 21.2 12 Sudeste 23 Este 0 -- -- 59
2020-05-27 09:00:00 17.6 8 Nordeste 15 Este 0 -- -- 72
2020-05-27 08:00:00 14.6 8 Nordeste 18 Este 0 -- -- 80
2020-05-27 07:00:00 11.6 9 Nordeste 16 Nordeste 0 -- -- 88
2020-05-27 06:00:00 11.3 5 Nordeste 10 Nordeste 0 -- -- 88
2020-05-27 05:00:00 11.6 8 Nordeste 13 Nordeste 0 -- -- 85
2020-05-27 04:00:00 12.5 10 Nordeste 13 Nordeste 0 -- -- 82
2020-05-27 03:00:00 12.9 8 Nordeste 19 Nordeste 0 -- -- 81
2020-05-27 02:00:00 13.6 13 Nordeste 29 Nordeste 0 -- -- 80
2020-05-27 01:00:00 14.1 14 Nordeste 25 Nordeste 0 -- -- 82
2020-05-27 00:00:00 15 11 Nordeste 23 Nordeste 0 -- -- 81
2020-05-26 23:00:00 16.2 14 Nordeste 29 Nordeste 0 -- -- 78
2020-05-26 22:00:00 17.7 18 Nordeste 35 Nordeste 0 -- -- 73
2020-05-26 21:00:00 20.1 19 Nordeste 37 Nordeste 0 -- -- 64
2020-05-26 20:00:00 21.8 23 Nordeste 41 Nordeste 0 -- -- 58
2020-05-26 19:00:00 22.6 22 Nordeste 39 Nordeste 0 -- -- 55
2020-05-26 18:00:00 21.7 21 Nordeste 44 Norte 0 -- -- 57
2020-05-26 17:00:00 22 23 Nordeste 38 Nordeste 0 -- -- 56
2020-05-26 16:00:00 21.8 21 Nordeste 38 Norte 0 -- -- 56
2020-05-26 15:00:00 23 19 Nordeste 39 Norte 0 -- -- 51
2020-05-26 14:00:00 22 22 Norte 35 Nordeste 0 -- -- 54
2020-05-26 13:00:00 21.3 20 Nordeste 38 Norte 0 -- -- 54
2020-05-26 12:00:00 20.1 21 Nordeste 35 Nordeste 0 -- -- 55
2020-05-26 11:00:00 18.9 19 Nordeste 39 Nordeste 0 -- -- 55
2020-05-26 10:00:00 17.6 15 Nordeste 28 Nordeste 0 -- -- 59
2020-05-26 09:00:00 15.2 18 Nordeste 28 Nordeste 0 -- -- 64
2020-05-26 08:00:00 13.3 17 Nordeste 26 Nordeste 0 -- -- 67
2020-05-26 07:00:00 12 13 Nordeste 27 Este 0 -- -- 70
2020-05-26 06:00:00 11.8 16 Nordeste 30 Nordeste 0 -- -- 69
2020-05-26 05:00:00 12.1 15 Nordeste 31 Nordeste 0 -- -- 70
2020-05-26 04:00:00 12.2 19 Nordeste 39 Nordeste 0 -- -- 69
2020-05-26 03:00:00 12 14 Nordeste 28 Nordeste 0 -- -- 77
2020-05-26 02:00:00 12.1 14 Nordeste 29 Nordeste 0 -- -- 77
2020-05-26 01:00:00 12.6 17 Nordeste 29 Nordeste 0 -- -- 78
2020-05-26 00:00:00 13.1 23 Nordeste 41 Nordeste 0 -- -- 76
2020-05-25 23:00:00 13.5 18 Nordeste 43 Nordeste 0 -- -- 79
2020-05-25 22:00:00 14.3 23 Nordeste 51 Nordeste 0 -- -- 79
2020-05-25 21:00:00 16.1 23 Nordeste 48 Este 0 -- -- 74
2020-05-25 20:00:00 18.3 27 Nordeste 49 Nordeste 0 -- -- 67
2020-05-25 19:00:00 19.9 28 Nordeste 49 Nordeste 0 -- -- 64
2020-05-25 18:00:00 21.2 30 Nordeste 48 Nordeste 0 -- -- 60
2020-05-25 17:00:00 22.3 30 Norte 46 Norte 0 -- -- 57
2020-05-25 16:00:00 22.9 25 Nordeste 39 Nordeste 0 -- -- 53
2020-05-25 15:00:00 23.2 20 Norte 37 Norte 0 -- -- 53
2020-05-25 14:00:00 23.1 15 Norte 31 Nordeste 0 -- -- 53
2020-05-25 13:00:00 22 18 Nordeste 31 Norte 0 -- -- 55
2020-05-25 12:00:00 20.8 15 Nordeste 28 Norte 0 -- -- 59
2020-05-25 11:00:00 19 15 Nordeste 25 Nordeste 0 -- -- 65
2020-05-25 10:00:00 16 16 Nordeste 26 Norte 0 -- -- 76
2020-05-25 09:00:00 13.7 14 Nordeste 26 Nordeste 0 -- -- 84
2020-05-25 08:00:00 11.6 13 Nordeste 21 Nordeste 0 -- -- 93
2020-05-25 07:00:00 10.3 11 Nordeste 17 Norte 0 -- -- 94
2020-05-25 06:00:00 10.4 8 Nordeste 15 Este 0 -- -- 93
2020-05-25 05:00:00 10.5 10 Nordeste 17 Nordeste 0 -- -- 93
2020-05-25 04:00:00 10.5 11 Nordeste 18 Nordeste 0 -- -- 92
2020-05-25 03:00:00 10.8 11 Nordeste 21 Nordeste 0 -- -- 91
2020-05-25 02:00:00 11.4 12 Nordeste 18 Nordeste 0 -- -- 89
2020-05-25 01:00:00 11.7 12 Nordeste 21 Este 0 -- -- 88
2020-05-25 00:00:00 12.6 12 Nordeste 21 Nordeste 0 -- -- 84
2020-05-24 23:00:00 13.8 13 Nordeste 24 Norte 0 -- -- 80
2020-05-24 22:00:00 15.3 16 Nordeste 28 Nordeste 0 -- -- 74
2020-05-24 21:00:00 17.3 17 Nordeste 32 Nordeste 0 -- -- 65
2020-05-24 20:00:00 20.7 17 Norte 27 Norte 0 -- -- 55
2020-05-24 19:00:00 22.3 17 Norte 34 Norte 0 -- -- 51
2020-05-24 18:00:00 23.7 15 Norte 24 Norte 0 -- -- 48
2020-05-24 17:00:00 24 12 Nordeste 26 Norte 0 -- -- 45
2020-05-24 16:00:00 22.7 17 Norte 28 Nordeste 0 -- -- 48
2020-05-24 15:00:00 22 15 Nordeste 27 Norte 0 -- -- 51
2020-05-24 14:00:00 20.8 16 Norte 28 Norte 0 -- -- 53
2020-05-24 13:00:00 19.3 16 Nordeste 31 Norte 0 -- -- 56
2020-05-24 12:00:00 17.4 16 Nordeste 28 Norte 0 -- -- 60
2020-05-24 11:00:00 15.7 14 Nordeste 26 Norte 0 -- -- 64
2020-05-24 10:00:00 13.1 13 Nordeste 24 Nordeste 0 -- -- 68
2020-05-24 09:00:00 11.1 13 Nordeste 23 Nordeste 0 -- -- 73
2020-05-24 08:00:00 8.3 10 Nordeste 21 Nordeste 0 -- -- 83
2020-05-24 07:00:00 7.4 12 Nordeste 18 Este 0 -- -- 87
2020-05-24 06:00:00 7.5 10 Nordeste 23 Nordeste 0 -- -- 86
2020-05-24 05:00:00 7.3 13 Nordeste 21 Nordeste 0 -- -- 87
2020-05-24 04:00:00 7.7 12 Nordeste 18 Norte 0 -- -- 84
2020-05-24 03:00:00 8.3 9 Nordeste 24 Nordeste 0 -- -- 81
2020-05-24 02:00:00 9 16 Nordeste 28 Norte 0 -- -- 80
2020-05-24 01:00:00 9.4 15 Nordeste 33 Nordeste 0 -- -- 82
2020-05-24 00:00:00 9.8 21 Nordeste 37 Nordeste 0 -- -- 85
2020-05-23 23:00:00 10.2 24 Nordeste 42 Nordeste 0 -- -- 87
2020-05-23 22:00:00 11 21 Nordeste 39 Norte 0 -- -- 84
2020-05-23 21:00:00 12.5 25 Nordeste 49 Nordeste 0 -- -- 78
2020-05-23 20:00:00 14.6 26 Nordeste 52 Nordeste 0 -- -- 72
2020-05-23 19:00:00 15.6 31 Nordeste 51 Norte 0 -- -- 70
2020-05-23 18:00:00 16.5 30 Nordeste 49 Nordeste 0 -- -- 68
2020-05-23 17:00:00 17.9 29 Nordeste 48 Norte 0 -- -- 67
2020-05-23 16:00:00 19.4 25 Nordeste 37 Norte 0 -- -- 63
2020-05-23 15:00:00 19.8 20 Nordeste 34 Norte 0 -- -- 65
2020-05-23 14:00:00 19 21 Nordeste 40 Nordeste 0 -- -- 65
2020-05-23 13:00:00 17.8 25 Nordeste 44 Nordeste 0 -- -- 69
2020-05-23 12:00:00 19 22 Norte 35 Nordeste 0 -- -- 66
2020-05-23 11:00:00 17.8 21 Norte 36 Norte 0 -- -- 69
2020-05-23 10:00:00 16.4 18 Nordeste 34 Norte 0 -- -- 74
2020-05-23 09:00:00 15.2 17 Nordeste 31 Nordeste 0 -- -- 79
2020-05-23 08:00:00 14.3 13 Nordeste 27 Nordeste 0 -- -- 85
2020-05-23 07:00:00 13.1 15 Nordeste 25 Nordeste 0 -- -- 92
2020-05-23 06:00:00 13.6 14 Nordeste 26 Nordeste 0 -- -- 92
2020-05-23 05:00:00 13.9 14 Nordeste 24 Nordeste 0 -- -- 92
2020-05-23 04:00:00 13.8 15 Nordeste 24 Norte 0 -- -- 94
2020-05-23 03:00:00 13.5 9 Nordeste 14 Nordeste 0 -- -- 93
2020-05-23 02:00:00 15 5 Nordeste 13 Nordeste 0 -- -- 89
2020-05-23 01:00:00 15.8 8 Norte 15 Norte 0 -- -- 86
2020-05-23 00:00:00 16.7 4 Norte 17 Norte 0 -- -- 73
2020-05-22 23:00:00 18.2 0 Calma 3 Este 0 -- -- 68
2020-05-22 22:00:00 21.9 3 Este 5 Noroeste 0 -- -- 53
2020-05-22 21:00:00 24.4 5 Noroeste 13 Oeste 0 -- -- 48
2020-05-22 20:00:00 27.2 8 Oeste 19 Sudoeste 0 -- -- 40
2020-05-22 19:00:00 28.7 6 Oeste 17 Sudoeste 0 -- -- 38
2020-05-22 18:00:00 28.9 7 Sudoeste 23 Sudoeste 0 -- -- 32
2020-05-22 17:00:00 28.8 8 Sudoeste 22 Sudoeste 0 -- -- 38
2020-05-22 16:00:00 28.1 11 Sudoeste 21 Sudoeste 0 -- -- 44
2020-05-22 15:00:00 27.7 8 Oeste 17 Sudoeste 0 -- -- 48
2020-05-22 14:00:00 26.8 6 Oeste 15 Sudoeste 0 -- -- 48
2020-05-22 13:00:00 25.6 8 Sudoeste 21 Sur 0 -- -- 51
2020-05-22 12:00:00 23.2 8 Sur 17 Sudoeste 0 -- -- 56
2020-05-22 11:00:00 20.9 9 Sur 15 Sur 0 -- -- 61
2020-05-22 10:00:00 19.4 8 Sudoeste 14 Sudoeste 0 -- -- 59
2020-05-22 09:00:00 18.1 8 Sur 12 Sur 0 -- -- 62
2020-05-22 08:00:00 13.9 3 Este 15 Sudeste 0 -- -- 74
2020-05-22 07:00:00 14.4 8 Sudeste 13 Sudeste 0 -- -- 66
2020-05-22 06:00:00 14.6 5 Sudeste 10 Sudeste 0 -- -- 65
2020-05-22 05:00:00 14 4 Sudeste 6 Sudeste 0 -- -- 69
2020-05-22 04:00:00 13.6 4 Este 17 Sudoeste 0 -- -- 71
2020-05-22 03:00:00 12.8 2 Este 5 Sudeste 0 -- -- 77
2020-05-22 02:00:00 13.6 0 Calma 5 Este 0 -- -- 75
2020-05-22 01:00:00 14.2 0 Calma 4 Sudeste 0 -- -- 75
2020-05-22 00:00:00 15.4 0 Calma 6 Sudeste 0 -- -- 72
2020-05-21 23:00:00 17.7 0 Calma 3 Este 0 -- -- 63
2020-05-21 22:00:00 21 2 Este 5 Norte 0 -- -- 50
2020-05-21 21:00:00 24.6 3 Norte 8 Noroeste 0 -- -- 43
2020-05-21 20:00:00 26.8 3 Oeste 9 Oeste 0 -- -- 38
2020-05-21 19:00:00 27.3 4 Oeste 13 Sudoeste 0 -- -- 30
2020-05-21 18:00:00 27.2 5 Sudoeste 13 Oeste 0 -- -- 33
2020-05-21 17:00:00 27.1 5 Oeste 17 Oeste 0 -- -- 33
2020-05-21 16:00:00 26.7 4 Oeste 13 Noroeste 0 -- -- 35
2020-05-21 15:00:00 25.8 3 Noroeste 12 Oeste 0 -- -- 34
2020-05-21 14:00:00 24.8 4 Oeste 11 Oeste 0 -- -- 37
2020-05-21 13:00:00 23.7 3 Noroeste 11 Noroeste 0 -- -- 46
2020-05-21 12:00:00 21.9 4 Oeste 10 Oeste 0 -- -- 47
2020-05-21 11:00:00 19.3 3 Oeste 9 Oeste 0 -- -- 54
2020-05-21 10:00:00 16 2 Noroeste 5 Oeste 0 -- -- 59
2020-05-21 09:00:00 12.4 2 Noroeste 4 Norte 0 -- -- 65
2020-05-21 08:00:00 10.3 2 Oeste 20 Este 0 -- -- 73
2020-05-21 07:00:00 11.1 9 Este 17 Nordeste 0 -- -- 61
2020-05-21 06:00:00 9.6 7 Nordeste 12 Este 0 -- -- 73
2020-05-21 05:00:00 9.5 2 Nordeste 9 Oeste 0 -- -- 74
2020-05-21 04:00:00 11.6 4 Nordeste 16 Nordeste 0 -- -- 60
2020-05-21 03:00:00 11 6 Este 13 Nordeste 0 -- -- 65
2020-05-21 02:00:00 10.6 3 Noroeste 6 Nordeste 0 -- -- 76
2020-05-21 01:00:00 13.2 2 Nordeste 12 Este 0 -- -- 65
2020-05-21 00:00:00 15.6 9 Nordeste 14 Nordeste 0 -- -- 57
2020-05-20 23:00:00 17.1 7 Nordeste 16 Nordeste 0 -- -- 51
2020-05-20 22:00:00 19.1 7 Nordeste 12 Nordeste 0 -- -- 50
2020-05-20 21:00:00 21.8 8 Nordeste 17 Nordeste 0 -- -- 45
2020-05-20 20:00:00 24.3 10 Nordeste 25 Norte 0 -- -- 37
2020-05-20 19:00:00 25.1 14 Norte 27 Norte 0 -- -- 34
2020-05-20 18:00:00 25.4 17 Norte 30 Nordeste 0 -- -- 29
2020-05-20 17:00:00 25.5 16 Norte 29 Norte 0 -- -- 31
2020-05-20 16:00:00 25.1 18 Norte 29 Norte 0 -- -- 30
2020-05-20 15:00:00 24.9 19 Norte 29 Nordeste 0 -- -- 31
2020-05-20 14:00:00 24.4 15 Norte 26 Norte 0 -- -- 30
2020-05-20 13:00:00 23.1 10 Norte 19 Noroeste 0 -- -- 43
2020-05-20 12:00:00 21.3 5 Norte 11 Nordeste 0 -- -- 46
2020-05-20 11:00:00 18.9 5 Norte 11 Norte 0 -- -- 60
2020-05-20 10:00:00 15.6 6 Nordeste 14 Norte 0 -- -- 69
2020-05-20 09:00:00 12 2 Nordeste 5 Nordeste 0 -- -- 77
2020-05-20 08:00:00 8.4 0 Calma 6 Oeste 0 -- -- 83
2020-05-20 07:00:00 8.1 0 Calma 17 Nordeste 0 -- -- 83
2020-05-20 06:00:00 9.2 10 Nordeste 15 Nordeste 0 -- -- 81
2020-05-20 05:00:00 9.4 10 Nordeste 15 Este 0 -- -- 81
2020-05-20 04:00:00 9.8 9 Nordeste 13 Nordeste 0 -- -- 82
2020-05-20 03:00:00 8.8 0 Calma 10 Nordeste 0 -- -- 88
2020-05-20 02:00:00 10.8 4 Nordeste 8 Este 0 -- -- 82
2020-05-20 01:00:00 11.2 0 Calma 9 Nordeste 0 -- -- 81
2020-05-20 00:00:00 13.8 8 Nordeste 21 Este 0 -- -- 73
2020-05-19 23:00:00 15.3 10 Nordeste 22 Nordeste 0 -- -- 69
2020-05-19 22:00:00 16.9 11 Nordeste 20 Nordeste 0 -- -- 64
2020-05-19 21:00:00 19.6 12 Nordeste 23 Nordeste 0 -- -- 54
2020-05-19 20:00:00 21.7 17 Nordeste 31 Norte 0 -- -- 47
2020-05-19 19:00:00 22.1 18 Nordeste 31 Norte 0 -- -- 42
2020-05-19 18:00:00 22.5 19 Norte 31 Norte 0 -- -- 38
2020-05-19 17:00:00 22.9 20 Nordeste 33 Norte 0 -- -- 40
2020-05-19 16:00:00 22.8 21 Norte 36 Norte 0 -- -- 41
2020-05-19 15:00:00 20.9 18 Norte 32 Norte 0 -- -- 44
2020-05-19 14:00:00 19.2 21 Norte 35 Nordeste 0 -- -- 52
2020-05-19 13:00:00 20 21 Norte 43 Nordeste 0 -- -- 51
2020-05-19 12:00:00 19.2 24 Nordeste 41 Nordeste 0 -- -- 52
2020-05-19 11:00:00 17.3 23 Nordeste 46 Nordeste 0 -- -- 57
2020-05-19 10:00:00 15.8 20 Nordeste 36 Nordeste 0 -- -- 57
2020-05-19 09:00:00 13.9 10 Nordeste 21 Este 0 -- -- 65
2020-05-19 08:00:00 11.2 5 Este 10 Nordeste 0 -- -- 72
2020-05-19 07:00:00 9 5 Nordeste 13 Nordeste 0 -- -- 76
2020-05-19 06:00:00 7.9 5 Nordeste 10 Nordeste 0 -- -- 82
2020-05-19 05:00:00 8.5 0 Calma 20 Nordeste 0 -- -- 79
2020-05-19 04:00:00 9.9 10 Nordeste 21 Nordeste 0 -- -- 76
2020-05-19 03:00:00 9.8 9 Nordeste 18 Norte 0 -- -- 77
2020-05-19 02:00:00 10.7 10 Nordeste 23 Nordeste 0 -- -- 69
2020-05-19 01:00:00 10.7 12 Nordeste 19 Nordeste 0 -- -- 76
2020-05-19 00:00:00 11.9 11 Nordeste 17 Nordeste 0 -- -- 66
2020-05-18 23:00:00 13.5 8 Nordeste 18 Nordeste 0 -- -- 64
2020-05-18 22:00:00 15.2 10 Nordeste 24 Nordeste 0 -- -- 61
2020-05-18 21:00:00 17.5 14 Nordeste 31 Norte 0 -- -- 50
2020-05-18 20:00:00 19.9 18 Norte 33 Nordeste 0 -- -- 41
2020-05-18 19:00:00 20.8 18 Nordeste 34 Norte 0 -- -- 41
2020-05-18 18:00:00 21.2 18 Nordeste 38 Nordeste 0 -- -- 42
2020-05-18 17:00:00 21.1 23 Norte 36 Norte 0 -- -- 41
2020-05-18 16:00:00 20.8 22 Norte 41 Norte 0 -- -- 42
2020-05-18 15:00:00 20.2 22 Norte 36 Norte 0 -- -- 43
2020-05-18 14:00:00 19.7 21 Norte 36 Norte 0 -- -- 43
2020-05-18 13:00:00 19 19 Norte 32 Norte 0 -- -- 37
2020-05-18 12:00:00 17.7 20 Norte 32 Norte 0 -- -- 49
2020-05-18 11:00:00 16.2 17 Norte 29 Norte 0 -- -- 52
2020-05-18 10:00:00 13.5 9 Nordeste 20 Norte 0 -- -- 64
2020-05-18 09:00:00 10.4 9 Nordeste 17 Nordeste 0 -- -- 75
2020-05-18 08:00:00 7.2 2 Nordeste 13 Nordeste 0 -- -- 82
2020-05-18 07:00:00 5.6 6 Nordeste 12 Nordeste 0 -- -- 87
2020-05-18 06:00:00 6 7 Nordeste 13 Nordeste 0 -- -- 85
2020-05-18 05:00:00 5.9 6 Nordeste 16 Norte 0 -- -- 87
2020-05-18 04:00:00 5.8 9 Norte 14 Norte 0 -- -- 88
2020-05-18 03:00:00 6.4 7 Norte 10 Norte 0 -- -- 83
2020-05-18 02:00:00 7.4 5 Nordeste 12 Nordeste 0 -- -- 84
2020-05-18 01:00:00 8.8 7 Nordeste 19 Nordeste 0 -- -- 81
2020-05-18 00:00:00 9.8 7 Norte 16 Norte 0 -- -- 81
2020-05-17 23:00:00 11.5 11 Nordeste 24 Nordeste 0 -- -- 74
2020-05-17 22:00:00 12.9 15 Nordeste 32 Nordeste 0 -- -- 66
2020-05-17 21:00:00 15.1 17 Nordeste 41 Nordeste 0 -- -- 58
2020-05-17 20:00:00 17 18 Nordeste 34 Norte 0 -- -- 52
2020-05-17 19:00:00 17.8 22 Norte 38 Nordeste 0 -- -- 47
2020-05-17 18:00:00 17.8 24 Norte 39 Norte 0 -- -- 45
2020-05-17 17:00:00 17.8 21 Nordeste 37 Norte 0 -- -- 40
2020-05-17 16:00:00 17.4 21 Norte 39 Norte 0 -- -- 45
2020-05-17 15:00:00 17 22 Norte 36 Norte 0 -- -- 48
2020-05-17 14:00:00 16.2 18 Nordeste 31 Norte 0 -- -- 45
2020-05-17 13:00:00 15.4 14 Nordeste 26 Norte 0 -- -- 48
2020-05-17 12:00:00 14 13 Nordeste 32 Norte 0 -- -- 56
2020-05-17 11:00:00 12.5 14 Norte 25 Norte 0 -- -- 60
2020-05-17 10:00:00 10.7 12 Nordeste 28 Norte 0 -- -- 65
2020-05-17 09:00:00 8.2 6 Norte 11 Noroeste 0 -- -- 78
2020-05-17 08:00:00 4.6 0 Calma 10 Noroeste 0 -- -- 87
2020-05-17 07:00:00 4.4 6 Norte 13 Norte 0 -- -- 86
2020-05-17 06:00:00 5.3 4 Noroeste 21 Nordeste 0 -- -- 81
2020-05-17 05:00:00 4.2 4 Sudoeste 13 Nordeste 0 -- -- 89
2020-05-17 04:00:00 5.5 7 Norte 20 Nordeste 0 -- -- 82
2020-05-17 03:00:00 6.7 10 Nordeste 26 Nordeste 0 -- -- 77
2020-05-17 02:00:00 6.8 11 Nordeste 29 Nordeste 0 -- -- 82
2020-05-17 01:00:00 6.9 17 Nordeste 32 Nordeste 0 -- -- 83
2020-05-17 00:00:00 7.3 18 Nordeste 28 Nordeste 0 -- -- 79
2020-05-16 23:00:00 8.1 21 Norte 32 Norte 0 -- -- 80
2020-05-16 22:00:00 8.8 15 Nordeste 31 Nordeste 0 -- -- 77
2020-05-16 21:00:00 10.3 17 Nordeste 39 Nordeste 0 -- -- 71
2020-05-16 20:00:00 12.1 24 Nordeste 42 Nordeste 0 -- -- 65
2020-05-16 19:00:00 12.8 19 Nordeste 42 Nordeste 0 -- -- 65
2020-05-16 18:00:00 12.9 22 Nordeste 40 Nordeste 0 -- -- 65
2020-05-16 17:00:00 13 25 Nordeste 44 Nordeste 0 -- -- 66
2020-05-16 16:00:00 12.5 26 Nordeste 42 Nordeste 0 -- -- 68
2020-05-16 15:00:00 11.5 26 Nordeste 43 Norte 0 -- -- 74
2020-05-16 14:00:00 12 27 Nordeste 45 Nordeste 0 -- -- 72
2020-05-16 13:00:00 11.7 23 Nordeste 49 Nordeste 0 -- -- 72
2020-05-16 12:00:00 10.7 23 Nordeste 44 Nordeste 0 -- -- 75
2020-05-16 11:00:00 10 24 Nordeste 44 Nordeste 0 -- -- 75
2020-05-16 10:00:00 10 19 Nordeste 37 Nordeste 0 -- -- 77
2020-05-16 09:00:00 8 24 Nordeste 39 Nordeste 0 -- -- 82
2020-05-16 08:00:00 6.9 19 Nordeste 36 Nordeste 0 -- -- 86
2020-05-16 07:00:00 6.7 17 Nordeste 37 Nordeste 0 -- -- 86
2020-05-16 06:00:00 6.5 19 Nordeste 34 Nordeste 0 -- -- 85
2020-05-16 05:00:00 6.4 21 Nordeste 37 Nordeste 0 -- -- 84
2020-05-16 04:00:00 6.7 22 Nordeste 40 Nordeste 0 -- -- 83
2020-05-16 03:00:00 6.7 24 Nordeste 40 Nordeste 0 -- -- 83
2020-05-16 02:00:00 6.3 20 Nordeste 41 Norte 0 -- -- 85
2020-05-16 01:00:00 6.7 23 Nordeste 41 Nordeste 0 -- -- 85
2020-05-16 00:00:00 6.9 21 Nordeste 42 Nordeste 0 -- -- 86
2020-05-15 23:00:00 7.5 21 Nordeste 45 Nordeste 0 -- -- 85
2020-05-15 22:00:00 7.7 23 Nordeste 40 Norte 0 -- -- 85
2020-05-15 21:00:00 8.4 27 Nordeste 56 Nordeste 0 -- -- 83
2020-05-15 20:00:00 9.1 26 Nordeste 50 Nordeste 0 -- -- 82
2020-05-15 19:00:00 9.5 23 Nordeste 41 Nordeste 0 -- -- 81
2020-05-15 18:00:00 10.5 30 Nordeste 46 Nordeste 0 -- -- 78
2020-05-15 17:00:00 10.2 28 Nordeste 45 Nordeste 0 -- -- 79
2020-05-15 16:00:00 10.4 27 Nordeste 44 Nordeste 0 -- -- 80
2020-05-15 15:00:00 10 26 Nordeste 42 Norte 0 -- -- 83
2020-05-15 14:00:00 10.4 27 Nordeste 42 Norte 0 -- -- 81
2020-05-15 13:00:00 10.9 21 Nordeste 34 Nordeste 0 -- -- 78
2020-05-15 12:00:00 10.9 16 Nordeste 30 Nordeste 0 -- -- 78
2020-05-15 11:00:00 9.6 18 Nordeste 29 Nordeste 0 -- -- 83
2020-05-15 10:00:00 9.4 14 Nordeste 27 Nordeste 0 -- -- 84
2020-05-15 09:00:00 8.3 14 Nordeste 23 Norte 0 -- -- 90
2020-05-15 08:00:00 7.4 6 Norte 14 Norte 0 -- -- 94
2020-05-15 07:00:00 6.8 9 Norte 24 Norte 0 -- -- 94
2020-05-15 06:00:00 6.9 12 Nordeste 32 Norte 0 -- -- 91
2020-05-15 05:00:00 7.1 13 Nordeste 20 Norte 0 -- -- 91
2020-05-15 04:00:00 7.7 13 Nordeste 27 Nordeste 0 -- -- 90
2020-05-15 03:00:00 7.4 12 Norte 19 Norte 0 -- -- 94
2020-05-15 02:00:00 6.9 12 Norte 16 Norte 0 -- -- 92
2020-05-15 01:00:00 7.2 9 Nordeste 14 Nordeste 0 -- -- 90
2020-05-15 00:00:00 8.1 8 Nordeste 19 Nordeste 0 -- -- 86
2020-05-14 23:00:00 9.4 12 Nordeste 26 Nordeste 0 -- -- 85
2020-05-14 22:00:00 9.8 11 Nordeste 28 Norte 0 -- -- 85
2020-05-14 21:00:00 10.4 15 Nordeste 26 Nordeste 0 -- -- 85
2020-05-14 20:00:00 11 12 Nordeste 21 Nordeste 0 -- -- 83
2020-05-14 19:00:00 11.2 12 Nordeste 27 Norte 0 -- -- 86
2020-05-14 18:00:00 11.5 13 Nordeste 23 Nordeste 0.4 -- -- 88
2020-05-14 17:00:00 10.4 3 Oeste 10 Sudoeste 2.2 -- -- 90
2020-05-14 16:00:00 11.1 4 Sudoeste 10 Norte 0.4 -- -- 85
2020-05-14 15:00:00 10.6 5 Nordeste 10 Este 4 -- -- 91
2020-05-14 14:00:00 10.2 3 Este 39 Nordeste 1.6 -- -- 85
2020-05-14 13:00:00 13.2 21 Nordeste 36 Nordeste 0 -- -- 77
2020-05-14 12:00:00 12.4 19 Nordeste 31 Nordeste 0 -- -- 81
2020-05-14 11:00:00 11.2 19 Nordeste 27 Norte 0 -- -- 85
2020-05-14 10:00:00 11.5 13 Nordeste 21 Nordeste 0 -- -- 84
2020-05-14 09:00:00 10.4 8 Nordeste 15 Nordeste 0 -- -- 89
2020-05-14 08:00:00 9.4 6 Nordeste 19 Nordeste 0 -- -- 91
2020-05-14 07:00:00 9.5 10 Nordeste 19 Este 0 -- -- 91
2020-05-14 06:00:00 9.5 8 Nordeste 18 Nordeste 0 -- -- 92
2020-05-14 05:00:00 9.5 12 Nordeste 19 Nordeste 0 -- -- 89
2020-05-14 04:00:00 9.5 8 Nordeste 12 Nordeste 0 -- -- 90
2020-05-14 03:00:00 9.6 6 Este 13 Este 0 -- -- 90
2020-05-14 02:00:00 9.8 9 Este 12 Este 0 -- -- 88
2020-05-14 01:00:00 10.3 5 Este 12 Nordeste 0 -- -- 88
2020-05-14 00:00:00 10.8 8 Nordeste 12 Nordeste 0 -- -- 89
2020-05-13 23:00:00 11.1 3 Sudoeste 18 Sudoeste 0 -- -- 88
2020-05-13 22:00:00 12.7 6 Sur 16 Sudoeste 0 -- -- 79
2020-05-13 21:00:00 14.3 4 Este 8 Este 0 -- -- 68
2020-05-13 20:00:00 15 4 Sur 8 Sur 0 -- -- 69
2020-05-13 19:00:00 15.6 3 Sur 13 Sudoeste 0 -- -- 64
2020-05-13 18:00:00 15.3 8 Sudoeste 18 Sudoeste 0 -- -- 71
2020-05-13 17:00:00 16.1 3 Oeste 17 Sudeste 0 -- -- 62
2020-05-13 16:00:00 15.2 6 Sudeste 16 Sur 0 -- -- 68
2020-05-13 15:00:00 13.2 8 Sudoeste 26 Oeste 0 -- -- 75
2020-05-13 14:00:00 13.9 9 Sudoeste 23 Sudoeste 0 -- -- 70
2020-05-13 13:00:00 13.1 10 Sudoeste 18 Oeste 0 -- -- 76
2020-05-13 12:00:00 13.2 10 Sudoeste 18 Sudoeste 0 -- -- 76
2020-05-13 11:00:00 11.6 8 Sudoeste 16 Sudoeste 0 -- -- 82
2020-05-13 10:00:00 10.1 8 Sudoeste 17 Oeste 0 -- -- 92
2020-05-13 09:00:00 9.1 3 Oeste 8 Sudoeste 0 -- -- 97
2020-05-13 08:00:00 8.5 4 Oeste 11 Sudoeste 1.8 -- -- 97
2020-05-13 07:00:00 8.3 4 Oeste 9 Oeste 2 -- -- 96
2020-05-13 06:00:00 8.1 6 Sudoeste 11 Sudoeste 0.2 -- -- 95
2020-05-13 05:00:00 8.3 7 Sudoeste 10 Sudoeste 0 -- -- 96
2020-05-13 04:00:00 8 0 Calma 9 Noroeste 0 -- -- 95
2020-05-13 03:00:00 8.4 2 Oeste 5 Oeste 0 -- -- 94
2020-05-13 02:00:00 8.6 0 Calma 12 Sudeste 0.2 -- -- 93
2020-05-13 01:00:00 8.9 9 Sur 18 Sur 0.2 -- -- 92
2020-05-13 00:00:00 9.5 7 Sur 11 Sur 1 -- -- 93
2020-05-12 23:00:00 10 6 Este 11 Este 1.6 -- -- 91
2020-05-12 22:00:00 10.3 2 Sudeste 5 Este 1.2 -- -- 93
2020-05-12 21:00:00 10.3 2 Sudoeste 13 Nordeste 0.4 -- -- 91
2020-05-12 20:00:00 10.5 6 Este 14 Este 0.6 -- -- 90
2020-05-12 19:00:00 10.1 4 Nordeste 18 Nordeste 3 -- -- 91
2020-05-12 18:00:00 9.9 23 Sur 45 Sur 10.6 -- -- 77
2020-05-12 17:00:00 16 8 Norte 15 Noroeste 0 -- -- 69
2020-05-12 16:00:00 16.4 6 Noroeste 11 Oeste 0 -- -- 67
2020-05-12 15:00:00 15.9 4 Oeste 12 Sudoeste 0 -- -- 68
2020-05-12 14:00:00 15.2 4 Sudoeste 14 Sur 0 -- -- 71
2020-05-12 13:00:00 14.7 8 Sur 13 Sur 0 -- -- 73
2020-05-12 12:00:00 14.1 5 Sur 13 Sudeste 0 -- -- 78
2020-05-12 11:00:00 12.1 7 Sur 12 Sur 0 -- -- 87
2020-05-12 10:00:00 11.6 5 Este 13 Nordeste 0 -- -- 90
2020-05-12 09:00:00 10 8 Sur 17 Sur 0 -- -- 95
2020-05-12 08:00:00 8.8 7 Sudeste 21 Sur 0 -- -- 96
2020-05-12 07:00:00 8.2 10 Sudeste 18 Este 0 -- -- 94
2020-05-12 06:00:00 8.2 9 Nordeste 14 Nordeste 0 -- -- 95
2020-05-12 05:00:00 9 2 Este 4 Norte 0 -- -- 94
2020-05-12 04:00:00 10 2 Sudeste 8 Este 0 -- -- 92
2020-05-12 03:00:00 10.6 5 Este 9 Este 0 -- -- 91
2020-05-12 02:00:00 10.1 6 Este 15 Nordeste 0 -- -- 89
2020-05-12 01:00:00 9.9 7 Nordeste 16 Nordeste 0 -- -- 89
2020-05-12 00:00:00 10.9 6 Nordeste 12 Nordeste 0 -- -- 86
2020-05-11 23:00:00 11.9 4 Nordeste 14 Sur 0 -- -- 80
2020-05-11 22:00:00 11.3 13 Sur 18 Sur 0 -- -- 82
2020-05-11 21:00:00 13.3 14 Sur 23 Sudoeste 0 -- -- 74
2020-05-11 20:00:00 15.1 10 Sudoeste 21 Sudoeste 0 -- -- 67
2020-05-11 19:00:00 16.5 9 Sudoeste 19 Oeste 0 -- -- 63
2020-05-11 18:00:00 17.8 8 Oeste 19 Oeste 0 -- -- 56
2020-05-11 17:00:00 16.4 9 Oeste 27 Oeste 0 -- -- 58
2020-05-11 16:00:00 16.2 10 Sudoeste 21 Oeste 0 -- -- 64
2020-05-11 15:00:00 16.2 10 Oeste 28 Sudoeste 0 -- -- 66
2020-05-11 14:00:00 14.7 15 Sudoeste 27 Sudoeste 0 -- -- 68
2020-05-11 13:00:00 14.7 6 Oeste 22 Sudoeste 0 -- -- 69
2020-05-11 12:00:00 13.3 12 Sudoeste 22 Sudoeste 0 -- -- 72
2020-05-11 11:00:00 11.9 9 Oeste 23 Oeste 0 -- -- 80
2020-05-11 10:00:00 10.4 9 Oeste 19 Oeste 0 -- -- 88
2020-05-11 09:00:00 8.9 9 Sudoeste 18 Sudoeste 0 -- -- 92
2020-05-11 08:00:00 8.7 9 Sudoeste 17 Sudoeste 0 -- -- 94
2020-05-11 07:00:00 8.7 11 Sudoeste 15 Sudoeste 0 -- -- 95
2020-05-11 06:00:00 8.9 7 Sudoeste 12 Sudoeste 0 -- -- 95
2020-05-11 05:00:00 9.5 5 Sur 12 Sudoeste 0 -- -- 95
2020-05-11 04:00:00 9.7 4 Sudoeste 10 Sudoeste 0 -- -- 95
2020-05-11 03:00:00 9.8 6 Sur 9 Sur 0 -- -- 94
2020-05-11 02:00:00 9.6 3 Sudoeste 6 Sudoeste 0 -- -- 94
2020-05-11 01:00:00 9.5 2 Sudoeste 6 Sudoeste 0.2 -- -- 94
2020-05-11 00:00:00 9.8 2 Noroeste 21 Oeste 2.2 -- -- 92
2020-05-10 23:00:00 10.8 3 Noroeste 8 Oeste 0.4 -- -- 90
2020-05-10 22:00:00 10.9 3 Oeste 11 Noroeste 0.2 -- -- 88
2020-05-10 21:00:00 11 6 Norte 17 Noroeste 0 -- -- 89
2020-05-10 20:00:00 11.6 10 Norte 20 Noroeste 0.2 -- -- 85
2020-05-10 19:00:00 11.7 9 Norte 22 Norte 0.2 -- -- 85
2020-05-10 18:00:00 11.9 12 Norte 27 Norte 0.2 -- -- 84
2020-05-10 17:00:00 14 10 Oeste 29 Sudoeste 0 -- -- 65
2020-05-10 16:00:00 15.3 15 Sudoeste 32 Sudoeste 0 -- -- 60
2020-05-10 15:00:00 14.5 14 Oeste 26 Sudoeste 0 -- -- 64
2020-05-10 14:00:00 13.3 9 Sudoeste 24 Oeste 0 -- -- 67
2020-05-10 13:00:00 12.6 7 Oeste 28 Noroeste 0 -- -- 70
2020-05-10 12:00:00 12 13 Oeste 26 Oeste 0 -- -- 77
2020-05-10 11:00:00 10.7 10 Oeste 24 Oeste 0 -- -- 84
2020-05-10 10:00:00 10 8 Oeste 19 Oeste 0 -- -- 87
2020-05-10 09:00:00 9.3 8 Oeste 18 Sudoeste 0 -- -- 91
2020-05-10 08:00:00 8.7 4 Oeste 7 Sudoeste 0 -- -- 94
2020-05-10 07:00:00 8.6 3 Oeste 11 Oeste 0.4 -- -- 94
2020-05-10 06:00:00 8.8 5 Oeste 23 Sur 6.2 -- -- 93
2020-05-10 05:00:00 9.7 4 Oeste 11 Oeste 1.8 -- -- 91
2020-05-10 04:00:00 10.2 3 Noroeste 19 Noroeste 0.6 -- -- 91
2020-05-10 03:00:00 11 8 Oeste 14 Oeste 1.2 -- -- 86
2020-05-10 02:00:00 12 6 Sudoeste 12 Sudoeste 2.2 -- -- 81
2020-05-10 01:00:00 12.3 4 Oeste 9 Noroeste 0 -- -- 76
2020-05-10 00:00:00 12.8 5 Sudoeste 13 Sudoeste 0 -- -- 76
2020-05-09 23:00:00 13.8 4 Sudoeste 6 Sudoeste 0 -- -- 80
2020-05-09 22:00:00 14.2 2 Noroeste 10 Oeste 0 -- -- 74
2020-05-09 21:00:00 16.2 3 Oeste 15 Sudoeste 0 -- -- 72
2020-05-09 20:00:00 18.4 7 Oeste 25 Oeste 0 -- -- 62
2020-05-09 19:00:00 18.8 10 Oeste 22 Noroeste 0 -- -- 62
2020-05-09 18:00:00 19 11 Oeste 24 Oeste 0 -- -- 63
2020-05-09 17:00:00 18.8 10 Oeste 21 Sur 0 -- -- 64
2020-05-09 16:00:00 18.2 10 Sudoeste 21 Sudoeste 0 -- -- 63
2020-05-09 15:00:00 18.5 9 Sudoeste 20 Sudoeste 0 -- -- 65
2020-05-09 14:00:00 18 13 Sudoeste 24 Oeste 0 -- -- 73
2020-05-09 13:00:00 17.7 12 Sudoeste 21 Sudoeste 0 -- -- 73
2020-05-09 12:00:00 16.8 13 Sudoeste 21 Sur 0 -- -- 74
2020-05-09 11:00:00 15.5 10 Sur 27 Sur 0 -- -- 80
2020-05-09 10:00:00 15.4 17 Sur 26 Sudeste 0 -- -- 82
2020-05-09 09:00:00 13.1 10 Sur 14 Sur 0 -- -- 91
2020-05-09 08:00:00 10.9 0 Calma 8 Sudeste 0 -- -- 93
2020-05-09 07:00:00 10.3 4 Sudeste 10 Sudeste 0 -- -- 94
2020-05-09 06:00:00 9.7 3 Este 5 Este 0 -- -- 95
2020-05-09 05:00:00 9.7 0 Calma 8 Sudeste 0 -- -- 93
2020-05-09 04:00:00 9.9 0 Calma 4 Norte 0 -- -- 92
2020-05-09 03:00:00 11.7 5 Sudeste 17 Este 0 -- -- 89
2020-05-09 02:00:00 11.8 6 Este 12 Este 0 -- -- 93
2020-05-09 01:00:00 11.5 0 Calma 12 Norte 0 -- -- 90
2020-05-09 00:00:00 11.6 4 Norte 12 Oeste 0 -- -- 91
2020-05-08 23:00:00 12.9 5 Sudeste 12 Este 0 -- -- 87
2020-05-08 22:00:00 13.8 6 Este 20 Este 0 -- -- 82
2020-05-08 21:00:00 13.7 15 Este 46 Sudoeste 11.6 -- -- 82
2020-05-08 20:00:00 15.1 9 Nordeste 30 Sudoeste 2.4 -- -- 81
2020-05-08 19:00:00 16.3 14 Sudeste 33 Sur 0.4 -- -- 71
2020-05-08 18:00:00 22.4 6 Oeste 14 Oeste 0 -- -- 55
2020-05-08 17:00:00 23.5 6 Sudoeste 15 Sur 0 -- -- 50
2020-05-08 16:00:00 23 7 Sudoeste 21 Sur 0 -- -- 57
2020-05-08 15:00:00 22.2 10 Sur 23 Sudoeste 0 -- -- 55
2020-05-08 14:00:00 20.8 13 Sur 31 Sudeste 0 -- -- 61
2020-05-08 13:00:00 19 14 Sudeste 27 Sudeste 0 -- -- 67
2020-05-08 12:00:00 17.2 11 Sudeste 18 Este 0 -- -- 75
2020-05-08 11:00:00 14.3 9 Nordeste 14 Nordeste 1.4 -- -- 91
2020-05-08 10:00:00 12.9 3 Oeste 11 Este 1.2 -- -- 92
2020-05-08 09:00:00 12.7 5 Sudoeste 29 Oeste 1.2 -- -- 91
2020-05-08 08:00:00 12.8 9 Este 24 Nordeste 1.4 -- -- 87
2020-05-08 07:00:00 13.4 6 Nordeste 32 Sudoeste 1.4 -- -- 86
2020-05-08 06:00:00 14 9 Noroeste 26 Sudoeste 0.2 -- -- 81
2020-05-08 05:00:00 15.2 10 Sudoeste 28 Este 0 -- -- 71
2020-05-08 04:00:00 16.4 15 Este 29 Sudeste 0 -- -- 61
2020-05-08 03:00:00 17.2 6 Sudeste 28 Sudeste 0 -- -- 68
2020-05-08 02:00:00 17.7 15 Sur 26 Sudeste 0 -- -- 64
2020-05-08 01:00:00 18 6 Sudeste 15 Sudeste 0 -- -- 63
2020-05-08 00:00:00 18.8 10 Sudeste 19 Sudeste 0 -- -- 59
2020-05-07 23:00:00 17.6 2 Nordeste 12 Sudeste 0 -- -- 65
2020-05-07 22:00:00 18.9 9 Sudeste 21 Sur 0 -- -- 58
2020-05-07 21:00:00 20.7 13 Sur 24 Sur 0 -- -- 54
2020-05-07 20:00:00 22.3 14 Sur 31 Sudeste 0 -- -- 48
2020-05-07 19:00:00 24.2 21 Sur 37 Sur 0 -- -- 42
2020-05-07 18:00:00 25.3 24 Sur 35 Sur 0 -- -- 39
2020-05-07 17:00:00 25.2 21 Sur 36 Sur 0 -- -- 40
2020-05-07 16:00:00 24.2 18 Sur 36 Sur 0 -- -- 45
2020-05-07 15:00:00 24.6 20 Sur 32 Sudeste 0 -- -- 43
2020-05-07 14:00:00 23.3 12 Sur 23 Sur 0 -- -- 53
2020-05-07 13:00:00 22.3 10 Sur 28 Sudeste 0 -- -- 50
2020-05-07 12:00:00 21.4 14 Sur 32 Sudeste 0 -- -- 52
2020-05-07 11:00:00 20.1 18 Sur 35 Sudeste 0 -- -- 51
2020-05-07 10:00:00 18.9 16 Sudeste 28 Sudeste 0 -- -- 55
2020-05-07 09:00:00 16.1 15 Sudeste 28 Sudeste 0 -- -- 58
2020-05-07 08:00:00 9.6 3 Norte 14 Este 0 -- -- 84
2020-05-07 07:00:00 9.8 5 Este 10 Este 0 -- -- 87
2020-05-07 06:00:00 9.5 3 Nordeste 7 Nordeste 0 -- -- 85
2020-05-07 05:00:00 9.8 0 Calma 10 Nordeste 0 -- -- 86
2020-05-07 04:00:00 11.2 4 Nordeste 9 Nordeste 0 -- -- 83
2020-05-07 03:00:00 12.2 0 Calma 13 Nordeste 0 -- -- 80
2020-05-07 02:00:00 13 8 Nordeste 15 Este 0 -- -- 78
2020-05-07 01:00:00 13.2 8 Nordeste 12 Nordeste 0 -- -- 75
2020-05-07 00:00:00 14.2 7 Nordeste 17 Nordeste 0 -- -- 65
2020-05-06 23:00:00 15.3 8 Nordeste 14 Nordeste 0 -- -- 60
2020-05-06 22:00:00 15.8 6 Nordeste 12 Norte 0 -- -- 60
2020-05-06 21:00:00 17.9 6 Norte 13 Noroeste 0 -- -- 57
2020-05-06 20:00:00 20.8 9 Noroeste 18 Norte 0 -- -- 45
2020-05-06 19:00:00 21.3 9 Norte 18 Noroeste 0 -- -- 43
2020-05-06 18:00:00 21.8 6 Noroeste 18 Oeste 0 -- -- 39
2020-05-06 17:00:00 21.4 8 Oeste 20 Oeste 0 -- -- 42
2020-05-06 16:00:00 21.1 8 Norte 18 Sudoeste 0 -- -- 44
2020-05-06 15:00:00 20.3 6 Oeste 17 Oeste 0 -- -- 43
2020-05-06 14:00:00 19.1 5 Oeste 14 Oeste 0 -- -- 47
2020-05-06 13:00:00 19 6 Norte 14 Norte 0 -- -- 48
2020-05-06 12:00:00 17.6 6 Noroeste 12 Noroeste 0 -- -- 58
2020-05-06 11:00:00 15.9 3 Noroeste 8 Oeste 0 -- -- 65
2020-05-06 10:00:00 13.3 3 Oeste 5 Oeste 0 -- -- 76
2020-05-06 09:00:00 10.2 2 Nordeste 6 Nordeste 0 -- -- 85
2020-05-06 08:00:00 6 3 Sudoeste 5 Sudeste 0 -- -- 90
2020-05-06 07:00:00 5.2 0 Calma 5 Este 0 -- -- 90
2020-05-06 06:00:00 5.9 2 Este 4 Sudeste 0 -- -- 89
2020-05-06 05:00:00 6.5 0 Calma 6 Este 0 -- -- 86
2020-05-06 04:00:00 6.8 0 Calma 4 Sudeste 0 -- -- 87
2020-05-06 03:00:00 7.7 0 Calma 5 Sudeste 0 -- -- 85
2020-05-06 02:00:00 8.4 0 Calma 4 Sudeste 0 -- -- 83
2020-05-06 01:00:00 9.1 0 Calma 5 Este 0 -- -- 80
2020-05-06 00:00:00 10.9 4 Este 12 Este 0 -- -- 74
2020-05-05 23:00:00 12 3 Nordeste 8 Este 0 -- -- 71
2020-05-05 22:00:00 14.8 4 Nordeste 8 Este 0 -- -- 59
2020-05-05 21:00:00 16.1 4 Noroeste 13 Noroeste 0 -- -- 54
2020-05-05 20:00:00 18.8 7 Oeste 17 Oeste 0 -- -- 43
2020-05-05 19:00:00 19.3 8 Noroeste 20 Oeste 0 -- -- 45
2020-05-05 18:00:00 19.5 10 Oeste 20 Oeste 0 -- -- 41
2020-05-05 17:00:00 19.2 9 Oeste 20 Sudoeste 0 -- -- 41
2020-05-05 16:00:00 18.5 10 Oeste 18 Oeste 0 -- -- 46
2020-05-05 15:00:00 17.7 10 Oeste 20 Oeste 0 -- -- 53
2020-05-05 14:00:00 16.4 8 Sudoeste 18 Sudoeste 0 -- -- 59
2020-05-05 13:00:00 15.4 8 Oeste 22 Sudoeste 0 -- -- 64
2020-05-05 12:00:00 14.1 10 Sudoeste 21 Sudoeste 0 -- -- 69
2020-05-05 11:00:00 13.2 9 Sudoeste 17 Sudoeste 0 -- -- 76
2020-05-05 10:00:00 11.7 10 Sur 18 Sur 0 -- -- 85
2020-05-05 09:00:00 10.8 13 Sur 18 Sur 0 -- -- 86
2020-05-05 08:00:00 9.2 6 Sur 15 Sur 0 -- -- 90
2020-05-05 07:00:00 9.3 12 Sur 15 Sur 0 -- -- 89
2020-05-05 06:00:00 9.9 9 Sur 11 Sur 0 -- -- 86
2020-05-05 05:00:00 10.3 7 Sur 13 Sudoeste 0 -- -- 84
2020-05-05 04:00:00 10.7 8 Sur 13 Sudoeste 0 -- -- 81
2020-05-05 03:00:00 11.3 3 Sur 23 Sudoeste 0 -- -- 78
2020-05-05 02:00:00 13 15 Sudoeste 27 Sudoeste 0 -- -- 70
2020-05-05 01:00:00 12.5 13 Sudoeste 21 Sur 0 -- -- 70
2020-05-05 00:00:00 13.5 13 Sur 23 Sudoeste 0 -- -- 66
2020-05-04 23:00:00 15.3 14 Sudoeste 22 Sudoeste 0 -- -- 57
2020-05-04 22:00:00 16.7 6 Sudoeste 28 Oeste 0 -- -- 63
2020-05-04 21:00:00 18.9 10 Oeste 51 Oeste 0 -- -- 57
2020-05-04 20:00:00 22.6 18 Oeste 45 Sur 0 -- -- 43
2020-05-04 19:00:00 24.8 30 Sudoeste 56 Sudoeste 0 -- -- 46
2020-05-04 18:00:00 26.6 30 Sudoeste 62 Sur 0 -- -- 35
2020-05-04 17:00:00 27.7 38 Sur 68 Sur 0 -- -- 30
2020-05-04 16:00:00 25.7 14 Sudeste 31 Sur 0 -- -- 42
2020-05-04 15:00:00 23.5 18 Sur 39 Sur 0 -- -- 47
2020-05-04 14:00:00 23.5 24 Sur 40 Sur 0 -- -- 49
2020-05-04 13:00:00 24 20 Sur 33 Sudeste 0 -- -- 46
2020-05-04 12:00:00 24.1 14 Sudeste 30 Sur 0 -- -- 49
2020-05-04 11:00:00 22.6 14 Sudeste 30 Sudeste 0 -- -- 49
2020-05-04 10:00:00 20.4 17 Sudeste 32 Sudeste 0 -- -- 52
2020-05-04 09:00:00 19.3 13 Sudeste 23 Sudeste 0 -- -- 54
2020-05-04 08:00:00 15.8 6 Este 21 Este 0 -- -- 61
2020-05-04 07:00:00 15.8 10 Sudeste 21 Sudeste 0 -- -- 60
2020-05-04 06:00:00 15 10 Este 20 Este 0 -- -- 63
2020-05-04 05:00:00 14.7 7 Sudeste 13 Sudeste 0 -- -- 65
2020-05-04 04:00:00 14.2 6 Sudeste 12 Sudeste 0 -- -- 67
2020-05-04 03:00:00 12.1 2 Sudeste 7 Sudeste 0 -- -- 78
2020-05-04 02:00:00 12.6 0 Calma 6 Norte 0 -- -- 76
2020-05-04 01:00:00 12.7 3 Sudeste 8 Sudeste 0 -- -- 77
2020-05-04 00:00:00 13.8 3 Este 6 Este 0 -- -- 76
2020-05-03 23:00:00 16.1 3 Este 8 Nordeste 0 -- -- 63
2020-05-03 22:00:00 18.6 3 Nordeste 8 Este 0 -- -- 58
2020-05-03 21:00:00 21.5 2 Nordeste 5 Norte 0 -- -- 46
2020-05-03 20:00:00 24.6 3 Norte 6 Norte 0 -- -- 40
2020-05-03 19:00:00 24.7 4 Sudoeste 14 Oeste 0 -- -- 36
2020-05-03 18:00:00 24.6 8 Oeste 17 Oeste 0 -- -- 37
2020-05-03 17:00:00 24.3 9 Sudoeste 19 Sur 0 -- -- 39
2020-05-03 16:00:00 23.7 10 Sudoeste 24 Sudoeste 0 -- -- 38
2020-05-03 15:00:00 23.1 9 Sudoeste 23 Sudoeste 0 -- -- 42
2020-05-03 14:00:00 22.1 13 Sudoeste 22 Sudoeste 0 -- -- 48
2020-05-03 13:00:00 21.4 11 Sur 20 Sur 0 -- -- 49
2020-05-03 12:00:00 20 8 Sudoeste 16 Sur 0 -- -- 58
2020-05-03 11:00:00 18.4 8 Sur 12 Sur 0 -- -- 63
2020-05-03 10:00:00 14.6 0 Calma 4 Norte 0 -- -- 86
2020-05-03 09:00:00 11.3 0 Calma 3 Sudoeste 0 -- -- 89
2020-05-03 08:00:00 8.2 0 Calma 4 Este 0 -- -- 93
2020-05-03 07:00:00 8 2 Este 5 Este 0 -- -- 93
2020-05-03 06:00:00 8.2 4 Este 6 Este 0 -- -- 93
2020-05-03 05:00:00 8.7 3 Este 5 Este 0 -- -- 92
2020-05-03 04:00:00 8.5 0 Calma 4 Sur 0 -- -- 92
2020-05-03 03:00:00 9.2 3 Nordeste 7 Nordeste 0 -- -- 91
2020-05-03 02:00:00 10.4 4 Sudeste 16 Este 0 -- -- 87
2020-05-03 01:00:00 11 4 Este 9 Sudoeste 0 -- -- 87
2020-05-03 00:00:00 11.7 4 Este 8 Sudeste 0 -- -- 85
2020-05-02 23:00:00 13.4 3 Nordeste 8 Sudeste 0 -- -- 80
2020-05-02 22:00:00 15.9 4 Sur 6 Sudeste 0 -- -- 71
2020-05-02 21:00:00 17.2 3 Sur 12 Sudoeste 0 -- -- 68
2020-05-02 20:00:00 19.2 6 Sudoeste 15 Sudoeste 0 -- -- 64
2020-05-02 19:00:00 19.4 5 Sudoeste 20 Sudoeste 0 -- -- 62
2020-05-02 18:00:00 18.9 9 Sudoeste 23 Sudoeste 0 -- -- 62
2020-05-02 17:00:00 18.9 10 Oeste 28 Sudoeste 0 -- -- 63
2020-05-02 16:00:00 18.4 13 Sudoeste 30 Sudoeste 0 -- -- 64
2020-05-02 15:00:00 17.8 14 Sudoeste 29 Sudoeste 0 -- -- 67
2020-05-02 14:00:00 16.8 14 Sudoeste 28 Oeste 0 -- -- 69
2020-05-02 13:00:00 15.7 16 Sudoeste 32 Sudoeste 0 -- -- 74
2020-05-02 12:00:00 14.4 15 Sudoeste 24 Sudoeste 0 -- -- 79
2020-05-02 11:00:00 13.1 13 Sudoeste 24 Sudoeste 0 -- -- 85
2020-05-02 10:00:00 11.9 17 Sudoeste 26 Sudoeste 0 -- -- 89
2020-05-02 09:00:00 10.9 12 Sudoeste 22 Sudoeste 0 -- -- 96
2020-05-02 08:00:00 10.2 15 Sudoeste 21 Sudoeste 0 -- -- 97
2020-05-02 07:00:00 9.5 12 Sur 17 Sur 0 -- -- 96
2020-05-02 06:00:00 9.7 12 Sur 18 Sur 0 -- -- 96
2020-05-02 05:00:00 9.8 14 Sur 20 Sudoeste 0 -- -- 94
2020-05-02 04:00:00 10.8 6 Sudoeste 24 Sudoeste 0 -- -- 92
2020-05-02 03:00:00 11.1 14 Sudoeste 21 Sudoeste 0 -- -- 92
2020-05-02 02:00:00 11.5 7 Sudoeste 28 Oeste 0 -- -- 92
2020-05-02 01:00:00 12.6 15 Sudoeste 30 Sudoeste 0 -- -- 89
2020-05-02 00:00:00 12.7 5 Oeste 18 Sudoeste 0 -- -- 88